createdAt,value
2023-01-17T00:07:22.037Z,24.3063
2023-01-17T00:22:23.972Z,24.271
2023-01-17T00:37:26.019Z,22.7952
2023-01-17T00:52:27.944Z,23.3672
2023-01-17T01:07:29.986Z,22.6553
2023-01-17T01:22:31.936Z,27.2901
2023-01-17T01:37:33.869Z,27.5668
2023-01-17T01:52:35.827Z,27.8367
2023-01-17T02:07:37.936Z,27.8076
2023-01-17T02:22:39.880Z,27.9636
2023-01-17T02:37:42.036Z,28.5814
2023-01-17T02:52:44.038Z,27.8924
2023-01-17T03:07:45.952Z,27.8336
2023-01-17T03:22:48.216Z,27.7686
2023-01-17T03:37:50.198Z,28.0416
2023-01-17T03:52:52.081Z,26.5893
2023-01-17T04:07:53.973Z,27.9475
2023-01-17T04:22:55.899Z,28.2756
2023-01-17T04:37:57.861Z,28.1716
2023-01-17T04:52:59.879Z,27.7426
2023-01-17T05:08:01.793Z,25.8836
2023-01-17T05:23:03.860Z,25.8087
2023-01-17T05:38:05.798Z,25.4311
2023-01-17T05:53:07.781Z,23.9553
2023-01-17T06:08:09.738Z,22.4993
2023-01-17T06:23:11.721Z,22.6522
2023-01-17T06:38:13.707Z,22.3204
2023-01-17T06:53:15.615Z,22.1415
2023-01-17T07:08:17.652Z,21.4946
2023-01-17T07:23:19.629Z,21.5206
2023-01-17T07:38:21.571Z,20.7765
2023-01-17T07:53:23.489Z,20.1717
2023-01-17T08:08:25.540Z,20.9938
2023-01-17T08:23:27.509Z,20.1847
2023-01-17T08:38:29.471Z,20.48
2023-01-17T08:53:31.378Z,20.675
2023-01-17T09:08:33.386Z,19.8529
2023-01-17T09:23:35.356Z,19.6381
2023-01-17T09:38:37.369Z,20.2751
2023-01-17T09:53:39.275Z,19.1379
2023-01-17T10:08:41.188Z,19.18
2023-01-17T10:23:43.092Z,19.8331
2023-01-17T10:38:45.254Z,19.4041
2023-01-17T10:53:47.176Z,19.037
2023-01-17T11:08:49.137Z,20.3661
2023-01-17T11:23:51.136Z,19.0531
2023-01-17T11:38:53.105Z,18.9392
2023-01-17T11:53:55.028Z,19.4109
2023-01-17T12:08:56.964Z,19.0302
2023-01-17T12:23:58.964Z,17.594
2023-01-17T12:39:01.190Z,20.0894
2023-01-17T12:54:04.144Z,19.5174
2023-01-17T13:09:06.206Z,18.6563
2023-01-17T13:24:08.091Z,19.7811
2023-01-17T13:39:10.019Z,19.0333
2023-01-17T13:54:11.978Z,19.6604
2023-01-17T14:09:13.972Z,19.3713
2023-01-17T14:24:15.882Z,18.6563
2023-01-17T14:39:17.811Z,19.7805
2023-01-17T14:54:19.738Z,19.8684
2023-01-17T15:09:21.875Z,18.5882
2023-01-17T15:24:23.815Z,20.4441
2023-01-17T15:39:25.767Z,20.389
2023-01-17T15:54:27.638Z,20.272
2023-01-17T16:09:29.582Z,20.025
2023-01-17T16:24:31.511Z,19.4561
2023-01-17T16:39:33.491Z,19.2122
2023-01-17T16:54:35.436Z,18.7411
2023-01-17T17:09:37.388Z,18.3672
2023-01-17T17:24:39.318Z,17.6392
2023-01-17T17:39:41.218Z,17.7333
2023-01-17T17:54:43.156Z,17.7005
2023-01-17T18:09:45.090Z,18.7244
2023-01-17T18:24:47.032Z,17.4634
2023-01-17T18:39:49.029Z,17.6646
2023-01-17T18:54:50.929Z,16.5627
2023-01-17T19:09:52.901Z,17.9475
2023-01-17T19:24:54.860Z,17.5996
2023-01-17T19:39:56.748Z,17.2003
2023-01-17T19:54:58.666Z,18.0583
2023-01-17T20:10:00.616Z,17.7686
2023-01-17T20:25:02.554Z,17.9927
2023-01-17T20:40:04.507Z,16.1145
2023-01-17T20:55:06.420Z,18.1815
2023-01-17T21:10:08.340Z,18.1685
2023-01-17T21:25:10.528Z,17.7915
2023-01-17T21:40:12.457Z,18.1357
2023-01-17T21:55:14.408Z,18.3474
2023-01-17T22:10:16.293Z,18.0484
2023-01-17T22:25:18.496Z,18.1945
2023-01-17T22:40:20.423Z,18.5455
2023-01-17T22:55:22.301Z,18.4545
2023-01-17T23:10:24.206Z,18.3146
2023-01-17T23:25:26.163Z,16.5268
2023-01-17T23:40:28.343Z,18.7077
2023-01-17T23:55:30.412Z,18.3926
